createdAt,value
2022-12-26T00:01:14.981Z,75.79
2022-12-26T00:03:43.273Z,75.38
2022-12-26T00:06:17.734Z,75.53
2022-12-26T00:08:47.059Z,75.52
2022-12-26T00:11:16.730Z,75.25
2022-12-26T00:13:45.362Z,75.39
2022-12-26T00:16:16.077Z,75.27
2022-12-26T00:18:44.670Z,75.17
2022-12-26T00:21:15.251Z,74.89
2022-12-26T00:23:45.200Z,74.86
2022-12-26T00:26:16.314Z,74.79
2022-12-26T00:28:45.150Z,74.55
2022-12-26T00:31:15.865Z,74.32
2022-12-26T00:33:44.223Z,74.26
2022-12-26T00:36:14.623Z,73.93
2022-12-26T00:38:45.599Z,74.19
2022-12-26T00:41:15.024Z,74.37
2022-12-26T00:43:43.343Z,74.07
2022-12-26T00:46:12.088Z,74.31
2022-12-26T00:48:43.165Z,73.86
2022-12-26T00:51:11.854Z,74.21
2022-12-26T00:53:40.138Z,74.20
2022-12-26T00:56:10.852Z,74.16
2022-12-26T00:58:39.017Z,73.92
2022-12-26T01:01:09.312Z,73.70
2022-12-26T01:03:37.612Z,73.47
2022-12-26T01:06:06.072Z,73.17
2022-12-26T01:08:34.249Z,73.48
2022-12-26T01:11:06.384Z,73.31
2022-12-26T01:13:36.699Z,73.50
2022-12-26T01:16:06.103Z,73.93
2022-12-26T01:18:34.817Z,73.63
2022-12-26T01:21:04.658Z,73.56
2022-12-26T01:23:32.735Z,73.94
2022-12-26T01:26:15.156Z,74.01
2022-12-26T01:28:51.679Z,74.32
2022-12-26T01:31:20.728Z,74.20
2022-12-26T01:33:49.428Z,74.36
2022-12-26T01:36:18.984Z,74.57
2022-12-26T01:38:47.575Z,74.34
2022-12-26T01:41:19.851Z,74.35
2022-12-26T01:43:53.481Z,74.07
2022-12-26T01:46:24.935Z,74.11
2022-12-26T01:48:53.313Z,73.94
2022-12-26T01:51:24.482Z,73.45
2022-12-26T01:54:38.487Z,73.92
2022-12-26T01:56:47.995Z,73.78
2022-12-26T01:59:20.539Z,73.71
2022-12-26T02:01:51.490Z,73.46
2022-12-26T02:04:44.054Z,73.48
2022-12-26T02:07:12.336Z,73.59
2022-12-26T02:09:45.303Z,73.31
2022-12-26T02:12:36.437Z,73.12
2022-12-26T02:15:11.409Z,73.46
2022-12-26T02:17:40.496Z,73.24
2022-12-26T02:20:18.777Z,73.01
2022-12-26T02:23:28.388Z,73.11
2022-12-26T02:26:32.383Z,72.97
2022-12-26T02:29:43.768Z,72.86
2022-12-26T02:32:21.262Z,73.26
2022-12-26T02:34:58.755Z,73.06
2022-12-26T02:37:42.914Z,72.83
2022-12-26T02:40:28.292Z,72.78
2022-12-26T02:43:00.469Z,72.96
2022-12-26T02:45:53.422Z,72.38
2022-12-26T02:48:31.989Z,72.43
2022-12-26T02:51:29.693Z,72.15
2022-12-26T02:54:24.793Z,72.61
2022-12-26T02:57:15.688Z,72.34
2022-12-26T03:00:07.696Z,72.10
2022-12-26T03:02:58.876Z,72.28
2022-12-26T03:05:50.213Z,71.97
2022-12-26T03:08:43.300Z,72.03
2022-12-26T03:11:29.139Z,71.76
2022-12-26T03:14:06.640Z,71.74
2022-12-26T03:16:53.104Z,71.69
2022-12-26T03:19:24.147Z,71.72
2022-12-26T03:21:54.324Z,71.81
2022-12-26T03:24:23.611Z,71.97
2022-12-26T03:26:54.083Z,71.77
2022-12-26T03:29:41.441Z,71.65
2022-12-26T03:32:12.862Z,71.72
2022-12-26T03:34:42.372Z,71.52
2022-12-26T03:37:50.139Z,71.80
2022-12-26T03:40:47.754Z,71.97
2022-12-26T03:43:45.649Z,71.84
2022-12-26T03:46:39.132Z,71.93
2022-12-26T03:49:28.626Z,71.62
2022-12-26T03:52:21.445Z,71.64
2022-12-26T03:55:15.346Z,72.00
2022-12-26T03:58:10.550Z,72.00
2022-12-26T04:00:58.995Z,72.15
2022-12-26T04:03:47.311Z,72.56
2022-12-26T04:06:37.231Z,72.83
2022-12-26T04:09:29.589Z,72.83
2022-12-26T04:12:19.823Z,72.75
2022-12-26T04:15:10.448Z,72.45
2022-12-26T04:18:16.479Z,72.66
2022-12-26T04:20:56.610Z,73.09
2022-12-26T04:23:50.188Z,73.02
2022-12-26T04:26:44.105Z,72.96
2022-12-26T04:29:31.083Z,73.24
2022-12-26T04:32:23.681Z,73.18
2022-12-26T04:35:15.748Z,73.16
2022-12-26T04:38:03.990Z,73.29
2022-12-26T04:40:53.599Z,73.43
2022-12-26T04:43:48.822Z,73.38
2022-12-26T04:46:21.901Z,73.10
2022-12-26T04:49:09.616Z,73.21
2022-12-26T04:51:38.058Z,73.16
2022-12-26T04:54:06.773Z,72.96
2022-12-26T04:56:35.633Z,72.79
2022-12-26T04:59:03.773Z,72.69
2022-12-26T05:01:50.739Z,72.89
2022-12-26T05:04:37.525Z,72.66
2022-12-26T05:07:25.385Z,72.91
2022-12-26T05:09:54.983Z,72.66
2022-12-26T05:12:23.265Z,72.46
2022-12-26T05:14:51.351Z,72.39
2022-12-26T05:17:38.378Z,73.06
2022-12-26T05:20:24.646Z,73.06
2022-12-26T05:23:11.063Z,72.21
2022-12-26T05:26:00.659Z,72.64
2022-12-26T05:28:44.347Z,72.76
2022-12-26T05:31:14.833Z,72.76
2022-12-26T05:34:02.664Z,72.85
2022-12-26T05:36:34.667Z,72.81
2022-12-26T05:39:03.252Z,73.09
2022-12-26T05:41:31.350Z,72.95
2022-12-26T05:43:59.479Z,73.43
2022-12-26T05:46:27.630Z,73.31
2022-12-26T05:48:57.202Z,73.44
2022-12-26T05:51:25.542Z,73.14
2022-12-26T05:53:53.604Z,73.20
2022-12-26T05:56:22.245Z,73.95
2022-12-26T05:58:55.892Z,76.33
2022-12-26T06:01:24.905Z,78.63
2022-12-26T06:03:54.569Z,79.51
2022-12-26T06:06:25.112Z,79.61
2022-12-26T06:08:55.042Z,79.26
2022-12-26T06:11:24.850Z,78.86
2022-12-26T06:13:53.207Z,76.33
2022-12-26T06:16:21.540Z,77.40
2022-12-26T06:18:50.011Z,79.49
2022-12-26T06:21:20.321Z,81.41
2022-12-26T06:23:50.812Z,82.99
2022-12-26T06:26:19.163Z,83.08
2022-12-26T06:28:47.894Z,83.70
2022-12-26T06:31:18.374Z,82.86
2022-12-26T06:33:46.491Z,84.77
2022-12-26T06:36:16.823Z,85.60
2022-12-26T06:38:45.303Z,84.11
2022-12-26T06:41:16.725Z,83.50
2022-12-26T06:43:45.150Z,82.83
2022-12-26T06:46:15.259Z,82.52
2022-12-26T06:48:43.651Z,82.05
2022-12-26T06:51:14.179Z,81.68
2022-12-26T06:53:42.938Z,81.92
2022-12-26T06:56:12.912Z,80.89
2022-12-26T06:58:43.180Z,81.61
2022-12-26T07:01:13.074Z,82.83
2022-12-26T07:03:48.506Z,82.54
2022-12-26T07:06:23.652Z,82.23
2022-12-26T07:08:52.415Z,82.37
2022-12-26T07:11:22.779Z,82.50
2022-12-26T07:13:53.101Z,81.52
2022-12-26T07:16:21.351Z,80.23
2022-12-26T07:18:49.504Z,81.05
2022-12-26T07:21:17.708Z,84.38
2022-12-26T07:23:45.797Z,83.06
2022-12-26T07:26:13.927Z,81.03
2022-12-26T07:28:42.029Z,79.41
2022-12-26T07:31:16.892Z,80.20
2022-12-26T07:33:47.647Z,80.24
2022-12-26T07:36:15.688Z,80.94
2022-12-26T07:38:43.826Z,79.76
2022-12-26T07:41:29.588Z,80.76
2022-12-26T07:44:02.681Z,81.27
2022-12-26T07:46:35.707Z,80.67
2022-12-26T07:49:05.640Z,81.07
2022-12-26T07:51:33.725Z,79.84
2022-12-26T07:54:07.115Z,82.07
2022-12-26T07:56:38.969Z,81.26
2022-12-26T07:59:07.114Z,80.65
2022-12-26T08:01:36.628Z,81.82
2022-12-26T08:04:04.995Z,81.74
2022-12-26T08:06:33.065Z,82.85
2022-12-26T08:09:01.140Z,83.99
2022-12-26T08:11:30.643Z,85.27
2022-12-26T08:13:58.869Z,84.73
2022-12-26T08:16:26.984Z,86.24
2022-12-26T08:18:56.449Z,86.16
2022-12-26T08:21:24.681Z,85.98
2022-12-26T08:23:52.814Z,84.98
2022-12-26T08:26:23.778Z,87.18
2022-12-26T08:28:52.713Z,87.77
2022-12-26T08:31:21.530Z,88.06
2022-12-26T08:33:50.223Z,88.23
2022-12-26T08:36:19.737Z,88.83
2022-12-26T08:38:48.216Z,88.33
2022-12-26T08:41:17.845Z,86.76
2022-12-26T08:46:38.471Z,86.54
2022-12-26T08:49:06.549Z,87.46
2022-12-26T08:51:36.386Z,88.15
2022-12-26T08:54:04.944Z,88.15
2022-12-26T08:56:33.419Z,88.97
2022-12-26T08:59:01.498Z,88.67
2022-12-26T09:01:31.465Z,89.35
2022-12-26T09:04:02.419Z,89.51
2022-12-26T09:06:33.583Z,89.19
2022-12-26T09:09:03.686Z,88.37
2022-12-26T09:11:31.883Z,88.42
2022-12-26T09:14:02.279Z,89.55
2022-12-26T09:16:37.490Z,90.23
2022-12-26T09:19:07.949Z,90.37
2022-12-26T09:21:36.124Z,88.05
2022-12-26T09:24:07.761Z,87.35
2022-12-26T09:26:35.915Z,86.96
2022-12-26T09:29:04.682Z,87.82
2022-12-26T09:31:34.568Z,87.27
2022-12-26T09:34:04.807Z,86.93
2022-12-26T09:36:35.382Z,85.60
2022-12-26T09:39:03.472Z,85.21
2022-12-26T09:41:45.649Z,84.66
2022-12-26T09:44:20.739Z,84.49
2022-12-26T09:46:57.771Z,83.35
2022-12-26T09:49:31.019Z,83.24
2022-12-26T09:52:03.184Z,84.57
2022-12-26T09:54:34.438Z,84.95
2022-12-26T09:57:14.858Z,83.12
2022-12-26T09:59:48.704Z,82.90
2022-12-26T10:02:20.064Z,82.57
2022-12-26T10:04:49.008Z,83.84
2022-12-26T10:07:26.251Z,81.55
2022-12-26T10:10:09.231Z,80.30
2022-12-26T10:12:44.031Z,80.19
2022-12-26T10:15:21.083Z,80.32
2022-12-26T10:17:57.315Z,80.38
2022-12-26T10:20:33.735Z,81.39
2022-12-26T10:23:23.130Z,79.83
2022-12-26T10:25:57.018Z,80.35
2022-12-26T10:28:34.299Z,78.50
2022-12-26T10:31:07.350Z,78.21
2022-12-26T10:33:43.280Z,79.05
2022-12-26T10:36:18.817Z,79.81
2022-12-26T10:38:49.368Z,81.05
2022-12-26T10:41:23.409Z,81.79
2022-12-26T10:43:53.999Z,80.21
2022-12-26T10:46:50.103Z,79.51
2022-12-26T10:49:21.512Z,79.38
2022-12-26T10:51:50.774Z,79.17
2022-12-26T10:54:20.273Z,80.60
2022-12-26T10:56:52.137Z,79.27
2022-12-26T10:59:23.988Z,78.33
2022-12-26T11:01:53.044Z,77.44
2022-12-26T11:04:53.045Z,77.83
2022-12-26T11:07:14.055Z,76.33
2022-12-26T11:09:44.118Z,74.91
2022-12-26T11:12:21.932Z,74.47
2022-12-26T11:14:58.397Z,76.35
2022-12-26T11:17:29.323Z,76.67
2022-12-26T11:20:24.965Z,75.98
2022-12-26T11:22:53.461Z,75.91
2022-12-26T11:25:25.100Z,74.37
2022-12-26T11:27:55.841Z,74.04
2022-12-26T11:30:31.432Z,75.25
2022-12-26T11:33:24.210Z,76.35
2022-12-26T11:35:58.072Z,77.18
2022-12-26T11:38:44.948Z,77.15
2022-12-26T11:41:36.715Z,75.62
2022-12-26T11:44:25.041Z,76.56
2022-12-26T11:46:58.593Z,75.22
2022-12-26T11:49:31.355Z,74.33
2022-12-26T11:52:01.045Z,75.06
2022-12-26T11:54:37.372Z,73.69
2022-12-26T11:57:20.424Z,73.03
2022-12-26T11:59:49.380Z,72.09
2022-12-26T12:02:26.609Z,70.43
2022-12-26T12:04:59.694Z,69.17
2022-12-26T12:07:43.258Z,69.48
2022-12-26T12:10:35.604Z,69.86
2022-12-26T12:13:12.644Z,68.48
2022-12-26T12:15:51.439Z,68.90
2022-12-26T12:18:29.270Z,70.14
2022-12-26T12:21:06.694Z,69.23
2022-12-26T12:23:54.692Z,69.51
2022-12-26T12:26:33.208Z,70.04
2022-12-26T12:29:29.726Z,70.78
2022-12-26T12:32:09.955Z,72.35
2022-12-26T12:35:04.623Z,73.46
2022-12-26T12:37:45.664Z,72.12
2022-12-26T12:40:30.908Z,72.16
2022-12-26T12:43:08.465Z,70.42
2022-12-26T12:45:45.105Z,70.30
2022-12-26T12:48:27.206Z,70.30
2022-12-26T12:51:04.794Z,68.59
2022-12-26T12:53:48.530Z,68.90
2022-12-26T12:56:26.012Z,69.75
2022-12-26T12:59:03.985Z,71.60
2022-12-26T13:01:39.021Z,71.03
2022-12-26T13:04:14.212Z,72.26
2022-12-26T13:06:48.508Z,71.45
2022-12-26T13:09:20.322Z,69.89
2022-12-26T13:11:53.038Z,68.97
2022-12-26T13:14:24.810Z,69.47
2022-12-26T13:16:57.298Z,69.70
2022-12-26T13:19:27.995Z,70.75
2022-12-26T13:22:03.089Z,74.33
2022-12-26T13:24:35.856Z,76.81
2022-12-26T13:27:12.618Z,77.11
2022-12-26T13:29:42.320Z,76.89
2022-12-26T13:32:23.171Z,78.57
2022-12-26T13:34:52.936Z,77.47
2022-12-26T13:37:56.689Z,77.30
2022-12-26T13:40:28.875Z,77.43
2022-12-26T13:43:18.971Z,78.50
2022-12-26T13:45:52.826Z,76.45
2022-12-26T13:49:06.621Z,73.98
2022-12-26T13:51:53.219Z,73.48
2022-12-26T13:54:24.712Z,74.64
2022-12-26T13:57:25.285Z,75.26
2022-12-26T14:00:18.821Z,75.88
2022-12-26T14:03:21.054Z,76.70
2022-12-26T14:06:26.676Z,77.04
2022-12-26T14:09:31.488Z,76.14
2022-12-26T14:12:15.216Z,75.71
2022-12-26T14:14:57.743Z,76.48
2022-12-26T14:17:39.199Z,76.70
2022-12-26T14:20:19.779Z,74.80
2022-12-26T14:23:03.052Z,75.39
2022-12-26T14:25:50.966Z,75.23
2022-12-26T14:28:28.871Z,75.22
2022-12-26T14:31:14.889Z,75.83
2022-12-26T14:33:51.838Z,76.21
2022-12-26T14:36:33.631Z,75.66
2022-12-26T14:39:11.048Z,77.36
2022-12-26T14:42:42.670Z,74.94
2022-12-26T14:45:44.213Z,74.10
2022-12-26T14:48:54.320Z,73.76
2022-12-26T14:51:39.719Z,72.64
2022-12-26T14:54:35.853Z,72.96
2022-12-26T14:57:52.316Z,73.68
2022-12-26T15:00:39.167Z,74.46
2022-12-26T15:03:39.703Z,75.80
2022-12-26T15:06:42.595Z,75.42
2022-12-26T15:09:43.267Z,75.94
2022-12-26T15:12:35.239Z,78.14
2022-12-26T15:15:28.491Z,78.91
2022-12-26T15:18:19.185Z,79.70
2022-12-26T15:21:19.696Z,79.03
2022-12-26T15:24:29.937Z,78.80
2022-12-26T15:27:36.667Z,79.00
2022-12-26T15:30:16.914Z,79.21
2022-12-26T15:32:53.466Z,78.39
2022-12-26T15:35:30.987Z,76.92
2022-12-26T15:38:27.184Z,78.65
2022-12-26T15:41:13.407Z,79.48
2022-12-26T15:43:54.561Z,79.34
2022-12-26T15:46:27.922Z,77.89
2022-12-26T15:49:20.695Z,77.82
2022-12-26T15:52:07.239Z,79.19
2022-12-26T15:54:57.560Z,76.87
2022-12-26T15:57:35.283Z,76.41
2022-12-26T16:00:13.986Z,76.17
2022-12-26T16:02:50.343Z,76.79
2022-12-26T16:05:34.814Z,76.90
2022-12-26T16:08:18.283Z,76.56
2022-12-26T16:10:52.596Z,76.62
2022-12-26T16:13:24.330Z,75.64
2022-12-26T16:15:56.922Z,75.48
2022-12-26T16:18:29.419Z,76.03
2022-12-26T16:21:18.243Z,75.11
2022-12-26T16:23:49.904Z,73.37
2022-12-26T16:26:24.021Z,73.54
2022-12-26T16:28:54.094Z,73.02
2022-12-26T16:31:24.883Z,72.56
2022-12-26T16:33:54.968Z,73.09
2022-12-26T16:36:25.701Z,73.50
2022-12-26T16:38:56.505Z,73.47
2022-12-26T16:41:26.484Z,72.47
2022-12-26T16:43:56.633Z,72.74
2022-12-26T16:46:28.963Z,72.18
2022-12-26T16:48:59.823Z,72.14
2022-12-26T16:51:41.343Z,71.87
2022-12-26T16:54:26.675Z,71.32
2022-12-26T16:57:04.369Z,73.45
2022-12-26T16:59:41.325Z,73.23
2022-12-26T17:02:19.186Z,74.49
2022-12-26T17:05:00.491Z,77.24
2022-12-26T17:07:29.755Z,80.03
2022-12-26T17:10:01.599Z,79.76
2022-12-26T17:12:33.925Z,78.89
2022-12-26T17:15:04.221Z,79.23
2022-12-26T17:17:37.143Z,80.78
2022-12-26T17:20:35.138Z,84.49
2022-12-26T17:23:38.976Z,86.06
2022-12-26T17:26:26.296Z,87.06
2022-12-26T17:28:54.449Z,90.06
2022-12-26T17:31:32.402Z,90.52
2022-12-26T17:34:03.423Z,92.12
2022-12-26T17:39:24.546Z,90.18
2022-12-26T17:41:56.588Z,90.87
2022-12-26T17:44:35.749Z,90.51
2022-12-26T17:47:13.932Z,89.84
2022-12-26T17:49:42.043Z,89.59
2022-12-26T17:52:11.249Z,90.17
2022-12-26T17:54:40.352Z,90.26
2022-12-26T17:57:21.336Z,90.64
2022-12-26T17:59:50.676Z,90.20
2022-12-26T18:02:19.195Z,90.92
2022-12-26T18:04:48.047Z,91.08
2022-12-26T18:07:19.438Z,91.15
2022-12-26T18:09:48.377Z,90.80
2022-12-26T18:12:18.677Z,91.30
2022-12-26T18:14:46.781Z,92.00
2022-12-26T18:17:18.303Z,92.84
2022-12-26T18:19:46.720Z,92.01
2022-12-26T18:22:20.493Z,91.43
2022-12-26T18:24:48.650Z,91.25
2022-12-26T18:27:22.165Z,91.58
2022-12-26T18:29:50.429Z,91.09
2022-12-26T18:32:24.895Z,91.96
2022-12-26T18:34:53.397Z,91.95
2022-12-26T18:37:21.698Z,95.03
2022-12-26T18:39:49.997Z,96.45
2022-12-26T18:42:19.926Z,96.26
2022-12-26T18:44:48.271Z,97.04
2022-12-26T18:47:18.480Z,95.58
2022-12-26T18:49:47.241Z,95.60
2022-12-26T18:52:17.665Z,94.80
2022-12-26T18:54:46.763Z,92.27
2022-12-26T18:57:21.360Z,92.31
2022-12-26T18:59:49.670Z,90.83
2022-12-26T19:02:19.360Z,91.44
2022-12-26T19:04:48.578Z,92.40
2022-12-26T19:07:18.139Z,91.91
2022-12-26T19:09:47.332Z,91.54
2022-12-26T19:12:16.211Z,91.06
2022-12-26T19:14:47.021Z,90.55
2022-12-26T19:17:15.766Z,89.35
2022-12-26T19:19:45.277Z,89.70
2022-12-26T19:22:13.413Z,90.95
2022-12-26T19:24:41.549Z,88.97
2022-12-26T19:27:09.659Z,90.09
2022-12-26T19:29:37.804Z,88.96
2022-12-26T19:32:07.463Z,90.25
2022-12-26T19:34:35.583Z,92.36
2022-12-26T19:37:03.671Z,93.29
2022-12-26T19:39:31.789Z,93.89
2022-12-26T19:41:59.942Z,93.82
2022-12-26T19:44:30.048Z,94.72
2022-12-26T19:47:12.390Z,94.82
2022-12-26T19:49:43.130Z,94.37
2022-12-26T19:52:11.883Z,94.50
2022-12-26T19:54:40.381Z,93.98
2022-12-26T19:57:08.564Z,93.52
2022-12-26T19:59:37.139Z,92.77
2022-12-26T20:02:05.626Z,92.35
2022-12-26T20:04:34.233Z,90.62
2022-12-26T20:07:03.724Z,90.34
2022-12-26T20:09:31.920Z,89.50
2022-12-26T20:12:01.200Z,89.67
2022-12-26T20:14:29.931Z,90.01
2022-12-26T20:17:08.250Z,89.82
2022-12-26T20:19:37.280Z,89.33
2022-12-26T20:22:07.732Z,90.12
2022-12-26T20:24:36.073Z,90.09
2022-12-26T20:27:04.798Z,90.64
2022-12-26T20:29:32.926Z,89.83
2022-12-26T20:32:01.095Z,89.06
2022-12-26T20:34:29.361Z,87.81
2022-12-26T20:36:57.478Z,88.32
2022-12-26T20:39:27.340Z,88.47
2022-12-26T20:41:55.570Z,88.40
2022-12-26T20:44:24.563Z,88.45
2022-12-26T20:46:52.737Z,88.51
2022-12-26T20:49:20.848Z,88.48
2022-12-26T20:51:49.049Z,88.78
2022-12-26T20:54:18.254Z,88.36
2022-12-26T20:56:47.817Z,88.28
2022-12-26T20:59:15.913Z,88.48
2022-12-26T21:01:44.320Z,88.53
2022-12-26T21:04:19.045Z,89.09
2022-12-26T21:06:47.737Z,89.62
2022-12-26T21:09:16.376Z,90.80
2022-12-26T21:11:45.725Z,91.30
2022-12-26T21:14:18.299Z,90.39
2022-12-26T21:16:48.965Z,89.62
2022-12-26T21:19:18.141Z,89.73
2022-12-26T21:21:47.940Z,90.62
2022-12-26T21:24:18.386Z,90.55
2022-12-26T21:26:47.622Z,90.40
2022-12-26T21:29:19.971Z,89.36
2022-12-26T21:31:49.371Z,91.54
2022-12-26T21:34:20.013Z,91.08
2022-12-26T21:37:08.407Z,92.44
2022-12-26T21:39:37.949Z,91.89
2022-12-26T21:42:07.272Z,92.16
2022-12-26T21:44:37.609Z,91.79
2022-12-26T21:47:08.400Z,92.71
2022-12-26T21:49:36.819Z,93.49
2022-12-26T21:52:06.169Z,93.48
2022-12-26T21:54:54.173Z,93.03
2022-12-26T21:57:24.146Z,93.41
2022-12-26T22:00:00.137Z,94.69
2022-12-26T22:02:48.520Z,94.30
2022-12-26T22:05:18.442Z,93.97
2022-12-26T22:07:46.936Z,94.14
2022-12-26T22:10:30.078Z,94.02
2022-12-26T22:12:58.359Z,95.62
2022-12-26T22:15:45.334Z,95.70
2022-12-26T22:18:13.518Z,95.51
2022-12-26T22:20:44.038Z,96.47
2022-12-26T22:23:12.188Z,95.59
2022-12-26T22:25:40.306Z,94.80
2022-12-26T22:28:08.367Z,94.54
2022-12-26T22:30:37.844Z,95.39
2022-12-26T22:33:05.979Z,94.43
2022-12-26T22:35:34.318Z,95.25
2022-12-26T22:38:02.558Z,95.09
2022-12-26T22:40:30.658Z,95.11
2022-12-26T22:42:58.793Z,94.96
2022-12-26T22:45:26.877Z,94.20
2022-12-26T22:47:56.488Z,93.73
2022-12-26T22:50:24.764Z,93.29
2022-12-26T22:52:53.246Z,93.76
2022-12-26T22:55:21.456Z,91.90
2022-12-26T22:57:52.587Z,91.10
2022-12-26T23:00:21.240Z,92.98
2022-12-26T23:02:49.495Z,92.93
2022-12-26T23:05:19.740Z,91.91
2022-12-26T23:07:48.330Z,92.05
2022-12-26T23:10:21.318Z,91.00
2022-12-26T23:12:49.919Z,89.51
2022-12-26T23:15:20.389Z,87.77
2022-12-26T23:18:11.666Z,87.00
2022-12-26T23:20:59.198Z,86.29
2022-12-26T23:23:27.839Z,85.99
2022-12-26T23:25:55.949Z,85.79
2022-12-26T23:28:41.383Z,85.82
2022-12-26T23:31:09.705Z,84.55
2022-12-26T23:33:37.944Z,84.64
2022-12-26T23:36:08.573Z,85.52
2022-12-26T23:38:36.866Z,86.92
2022-12-26T23:41:05.179Z,87.35
2022-12-26T23:43:34.564Z,89.32
2022-12-26T23:46:02.945Z,88.12
2022-12-26T23:48:31.033Z,87.93
2022-12-26T23:51:03.556Z,87.70
2022-12-26T23:53:33.145Z,86.47
2022-12-26T23:56:01.390Z,85.78
2022-12-26T23:58:29.874Z,86.17
